Terminal Aerodrome Forecast
Issued by NWS

Home | Current Version | Previous Version | Text Only | Print | Product List | Glossary On
Versions: 1 2 3 4 5 6 7 8 9 10 11 12
660
FTUS46 KMFR 241138
TAFLMT
TAF
KLMT 241138Z 2412/2512 VRB02KT P6SM VCFG SKC
     FM241900 30007KT P6SM SCT060 SCT120
     FM242200 30012KT P6SM -SHRA BKN060 BKN100 PROB30 2422/2504 TS
      BKN060CB
     FM250500 32007KT P6SM BKN070 BKN120=

USA.gov is the U.S. government's official web portal to all federal, state and local government web resources and services.